Latest Coastal Weather Observations for Robe Airport

IDV60701

Issued at 7:02 pm EDT Thursday 21 October 2021 (issued every 10 minutes, with the page automatically refreshed every 10 minutes)

About coastal observations | Map of coastal stations | Coastal observations for VIC | Marine services | Other Formats
Station Details ID: 026105 Name: ROBE AIRFIELD Lat: -37.18 Lon: 139.81 Height: 3.0 m
Data from the previous 72 hours. | See also: Recent months at Robe Airport
Date/Time
EDT
Wind Sea
Height
m
Swell Vis
km
Cloud Weather Temp
°C
Press
MSL
hPa
Rain since
9am
mm
Dir  Spd
kts
Gust
kts
Height
m
Period
s
Dir
21/07:00pm W 6 12 - - - - - - - 15.7 1013.5 0.2
21/06:30pm WNW 7 11 - - - - - - - 16.6 1013.0 0.2
21/06:00pm WNW 9 14 - - - - - - - 17.0 1013.0 0.2
21/05:30pm WNW 10 12 - - - - - - - 17.8 1012.4 0.2
21/05:00pm NW 9 13 - - - - - - - 18.6 1011.9 0.2
21/04:30pm WNW 10 15 - - - - - - - 18.6 1012.0 0.2
21/04:00pm NW 9 14 - - - - - - - 17.9 1012.1 0.2
21/03:30pm NW 11 14 - - - - - - - 17.9 1012.1 0.2
21/03:00pm NW 11 15 - - - - - - - 17.8 1012.0 0.2
21/02:30pm NW 11 15 - - - - - - - 17.6 1012.3 0.2
21/02:00pm NNW 11 15 - - - - - - - 17.6 1012.2 0.2
21/01:30pm NW 10 13 - - - - - - - 16.6 1012.3 0.2
21/01:00pm NW 13 19 - - - - - - - 16.3 1012.5 0.0
21/12:30pm NW 11 16 - - - - - - - 17.7 1012.3 0.0
21/12:00pm NW 12 17 - - - - - - - 18.1 1012.2 0.0
21/11:30am NNW 12 18 - - - - - - - 18.3 1012.1 0.0
21/11:00am NNW 11 16 - - - - - - - 17.2 1012.0 0.0
21/10:30am NNW 11 16 - - - - - - - 17.2 1011.8 0.0
21/10:00am NNW 12 15 - - - - - - - 16.7 1011.7 0.0
21/09:30am NNW 10 14 - - - - - - - 16.8 1011.4 0.0
21/09:00am NNW 9 13 - - - - - - - 16.5 1011.2 0.0
21/08:30am NNW 8 13 - - - - - - - 16.0 1011.0 0.0
21/08:00am N 6 9 - - - - - - - 14.9 1010.9 0.0
21/07:30am N 4 5 - - - - - - - 12.5 1010.8 0.0
21/07:00am NNW 2 3 - - - - - - - 11.8 1010.6 0.0
21/06:30am NNW 2 3 - - - - - - - 11.4 1010.3 0.0
21/06:00am NW 3 4 - - - - - - - 12.3 1010.0 0.0
21/05:30am NW 3 4 - - - - - - - 13.8 1009.7 0.0
21/05:00am NW 5 7 - - - - - - - 14.6 1009.8 0.0
21/04:30am NW 5 6 - - - - - - - 14.8 1009.7 0.0
21/04:00am NW 4 5 - - - - - - - 14.5 1009.4 0.0
21/03:30am NNW 3 4 - - - - - - - 14.4 1009.4 0.0
21/03:00am NW 3 4 - - - - - - - 15.4 1009.4 0.0
21/02:30am NNW 6 9 - - - - - - - 16.0 1009.3 0.0
21/02:00am NNW 10 14 - - - - - - - 16.9 1009.3 0.0
21/01:30am NNW 6 10 - - - - - - - 17.6 1009.4 0.0
21/01:00am N 6 7 - - - - - - - 18.1 1009.1 0.0
21/12:30am N 8 11 - - - - - - - 19.1 1009.2 0.0
21/12:00am N 10 14 - - - - - - - 19.8 1009.3 0.0
 
Date/Time
EDT
Wind Sea
Height
m
Swell Vis
km
Cloud Weather Temp
°C
Press
MSL
hPa
Rain since
9am
mm
Dir  Spd
kts
Gust
kts
Height
m
Period
s
Dir
20/11:30pm N 12 16 - - - - - - - 21.1 1009.3 0.0
20/11:00pm NNE 13 19 - - - - - - - 20.9 1009.0 0.0
20/10:30pm N 14 20 - - - - - - - 21.5 1009.4 0.0
20/10:00pm NNE 13 17 - - - - - - - 21.3 1009.1 0.0
20/09:30pm NNE 10 14 - - - - - - - 20.6 1009.2 0.0
20/09:00pm NNE 9 13 - - - - - - - 20.3 1009.0 0.0
20/08:30pm N 9 13 - - - - - - - 20.3 1009.3 0.0
20/08:00pm NNE 9 12 - - - - - - - 20.3 1008.7 0.0
20/07:30pm NNE 11 16 - - - - - - - 20.8 1008.4 0.0
20/07:00pm NE 11 15 - - - - - - - 21.3 1008.5 0.0
20/06:30pm NNE 10 14 - - - - - - - 21.5 1008.9 0.0
20/06:00pm NNE 12 18 - - - - - - - 22.3 1009.7 0.0
20/05:30pm NNE 13 19 - - - - - - - 22.9 1010.4 0.0
20/05:00pm N 14 19 - - - - - - - 22.9 1010.9 0.0
20/04:30pm NNE 12 19 - - - - - - - 22.5 1010.8 0.0
20/04:00pm NNE 13 19 - - - - - - - 22.1 1010.7 0.0
20/03:37pm NE 16 27 - - - - - - - 22.2 1010.7 0.0
20/03:30pm NE 18 27 - - - - - - - 22.1 1010.4 0.0
20/03:00pm NNE 17 25 - - - - - - - 22.0 1011.3 0.0
20/02:43pm NE 17 27 - - - - - - - 22.1 1011.1 0.0
20/02:30pm NE 19 26 - - - - - - - 22.2 1011.1 0.0
20/02:00pm NE 19 26 - - - - - - - 21.4 1012.0 0.0
20/01:30pm NE 17 25 - - - - - - - 20.9 1012.6 0.0
20/01:00pm NE 17 23 - - - - - - - 20.0 1013.3 0.0
20/12:30pm NE 16 22 - - - - - - - 20.0 1014.1 0.0
20/12:27pm NNE 16 27 - - - - - - - 19.9 1014.2 0.0
20/12:00pm NE 15 24 - - - - - - - 19.2 1014.7 0.0
20/11:30am NNE 17 23 - - - - - - - 18.2 1015.6 0.0
20/11:00am NNE 18 25 - - - - - - - 17.5 1015.9 0.0
20/10:30am NE 15 22 - - - - - - - 16.2 1016.4 0.0
20/10:00am NE 15 22 - - - - - - - 14.7 1016.8 0.0
20/09:30am NE 14 19 - - - - - - - 12.7 1017.0 0.0
20/09:00am NE 11 15 - - - - - - - 11.3 1017.2 0.0
20/08:30am NE 11 15 - - - - - - - 9.9 1017.1 0.0
20/08:00am NE 9 14 - - - - - - - 9.3 1017.5 0.0
20/07:30am NE 8 11 - - - - - - - 8.3 1017.8 0.0
20/07:00am NE 9 13 - - - - - - - 7.7 1017.9 0.0
20/06:30am ENE 9 13 - - - - - - - 7.6 1017.5 0.0
20/06:00am ENE 8 12 - - - - - - - 7.5 1017.9 0.0
20/05:30am ENE 8 12 - - - - - - - 7.5 1018.2 0.0
20/05:00am ENE 8 11 - - - - - - - 7.7 1018.3 0.0
20/04:30am ENE 5 8 - - - - - - - 7.8 1019.0 0.0
20/04:00am E 4 7 - - - - - - - 7.8 1019.4 0.0
20/03:30am E 4 7 - - - - - - - 7.9 1019.5 0.0
20/03:00am E 5 7 - - - - - - - 7.5 1019.7 0.0
20/02:30am E 6 9 - - - - - - - 7.6 1020.4 0.0
20/02:00am E 3 4 - - - - - - - 7.5 1020.7 0.0
20/01:30am E 5 9 - - - - - - - 8.3 1021.1 0.0
20/01:00am E 9 13 - - - - - - - 9.0 1020.8 0.0
20/12:30am E 10 15 - - - - - - - 9.4 1021.0 0.0
20/12:00am ESE 10 17 - - - - - - - 9.7 1021.3 0.0
 
Date/Time
EDT
Wind Sea
Height
m
Swell Vis
km
Cloud Weather Temp
°C
Press
MSL
hPa
Rain since
9am
mm
Dir  Spd
kts
Gust
kts
Height
m
Period
s
Dir
19/11:30pm ESE 10 14 - - - - - - - 9.9 1021.7 0.0
19/11:00pm ESE 7 12 - - - - - - - 9.8 1022.4 0.0
19/10:30pm SE 5 8 - - - - - - - 9.6 1023.1 0.0
19/10:00pm SE 2 3 - - - - - - - 10.4 1023.4 0.0
19/09:30pm SE 5 7 - - - - - - - 11.1 1022.6 0.0
19/09:00pm SE 5 6 - - - - - - - 12.0 1022.6 0.0
19/08:30pm ESE 5 7 - - - - - - - 12.8 1022.2 0.0
19/08:00pm ESE 6 9 - - - - - - - 14.2 1021.3 0.0
19/07:30pm ESE 8 11 - - - - - - - 15.5 1020.8 0.0
19/07:00pm SE 10 15 - - - - - - - 16.2 1020.8 0.0
19/06:30pm SSE 12 17 - - - - - - - 16.4 1021.1 0.0
19/06:00pm SSE 13 18 - - - - - - - 16.3 1021.4 0.0
19/05:30pm SSE 13 18 - - - - - - - 16.4 1021.3 0.0
19/05:00pm S 14 20 - - - - - - - 16.6 1022.2 0.0
19/04:30pm SSE 10 15 - - - - - - - 17.5 1021.6 0.0
19/04:00pm SSE 9 14 - - - - - - - 17.2 1021.6 0.0
19/03:30pm SE 10 15 - - - - - - - 17.3 1021.4 0.0
19/03:00pm SSE 9 16 - - - - - - - 17.2 1022.3 0.0
19/02:30pm SSE 9 17 - - - - - - - 17.3 1022.7 0.0
19/02:00pm SSE 9 13 - - - - - - - 17.2 1023.1 0.0
19/01:30pm SE 6 10 - - - - - - - 17.3 1023.3 0.0
19/01:00pm ESE 6 10 - - - - - - - 16.2 1023.1 0.0
19/12:30pm ESE 6 11 - - - - - - - 15.7 1023.5 0.0
19/12:00pm SSE 6 10 - - - - - - - 14.4 1023.9 0.0
19/11:30am SE 6 9 - - - - - - - 14.7 1024.1 0.0
19/11:00am SSE 4 6 - - - - - - - 13.9 1024.5 0.0
19/10:30am SE 6 9 - - - - - - - 13.8 1024.3 0.0
19/10:00am SE 7 10 - - - - - - - 14.0 1024.3 0.0
19/09:30am ESE 6 9 - - - - - - - 13.7 1023.5 0.0
19/09:00am ESE 5 6 - - - - - - - 12.9 1023.2 0.0
19/08:30am SE 2 5 - - - - - - - 11.8 1023.1 0.0
19/08:00am CALM 0 0 - - - - - - - 8.8 1022.8 0.0
19/07:30am CALM 0 0 - - - - - - - 5.2 1022.8 0.0
19/07:00am CALM 0 0 - - - - - - - 4.8 1022.6 0.0
19/06:30am CALM 0 0 - - - - - - - 5.5 1022.4 0.0
19/06:00am CALM 0 0 - - - - - - - 5.9 1022.3 0.0
19/05:30am CALM 0 0 - - - - - - - 6.9 1022.2 0.0
19/05:00am CALM 0 0 - - - - - - - 8.0 1021.8 0.0
19/04:30am CALM 0 0 - - - - - - - 8.2 1021.6 0.0
19/04:00am CALM 0 0 - - - - - - - 8.0 1021.4 0.0
19/03:30am CALM 0 0 - - - - - - - 6.5 1021.1 0.0
19/03:00am CALM 0 0 - - - - - - - 7.1 1021.1 0.0
19/02:30am CALM 0 0 - - - - - - - 7.9 1021.2 0.0
19/02:00am SE 2 2 - - - - - - - 10.5 1021.4 0.0
19/01:30am SE 4 6 - - - - - - - 11.5 1021.3 0.0
19/01:00am S 3 5 - - - - - - - 11.2 1021.4 0.0
19/12:30am S 3 4 - - - - - - - 11.6 1021.2 0.0
19/12:00am SSE 4 6 - - - - - - - 11.6 1021.2 0.0
 
Date/Time
EDT
Wind Sea
Height
m
Swell Vis
km
Cloud Weather Temp
°C
Press
MSL
hPa
Rain since
9am
mm
Dir  Spd
kts
Gust
kts
Height
m
Period
s
Dir
18/11:30pm S 6 7 - - - - - - - 11.3 1021.2 0.0
18/11:00pm S 5 6 - - - - - - - 11.0 1021.2 0.0
18/10:30pm S 2 4 - - - - - - - 10.1 1021.0 0.0
18/10:00pm S 3 5 - - - - - - - 9.9 1020.8 0.0
18/09:30pm S 5 5 - - - - - - - 10.5 1020.4 0.0
18/09:00pm S 6 8 - - - - - - - 11.3 1020.0 0.0
18/08:30pm SSE 6 8 - - - - - - - 11.2 1019.4 0.0
18/08:00pm S 5 7 - - - - - - - 12.0 1019.0 0.0

Other formats

Comma delimited format used in spreadsheet applications
http://www.bom.gov.au/fwo/IDV60701/IDV60701.95816.axf

JavaScript Object Notation format (JSON) in row-major order
http://www.bom.gov.au/fwo/IDV60701/IDV60701.95816.json

Data quality

Most of these data are generated automatically and are frequently updated. Quality checks on data are not normally performed. It is possible for incorrect values to appear. Refer to information at About Latest Weather Observations and please check the disclaimer before using these data.